Jerseyville, Illinois
Current Conditions -  °F | °C
As of 3:28 AM on Friday 24 Oct 2014 (Local Time) from KSET Reporting Station
Broken Clouds Broken Clouds  
Wind Chill: 50°   Ceiling: 2800
Heat Index: 50°   Visibility: 10mi
Dew Point: 48°   Wind: 0mph
Humidity: 93%   Direction: NA
Pressure: 30.08"   Gusts: NA
Location:  39.12°N, 90.33°W
Report Text: KSET 240828Z AUTO 00000KT 10SM BKN028 10/09 A3008 RMK AO2 T01000089 $
Loading
Personal Weather Stations






























Interactive Weather Map
Tropical Storm Tracking
New forecast layout! Learn more

10-Day Weather Forecast

Advertisements
Track Severe Weather on mobile